createdAt,value
2017-12-28T00:02:12.968Z,69.06
2017-12-28T00:04:54.498Z,68.40
2017-12-28T00:10:15.845Z,68.37
2017-12-28T00:12:46.659Z,69.26
2017-12-28T00:15:19.675Z,68.60
2017-12-28T00:17:53.047Z,68.54
2017-12-28T00:20:24.237Z,68.11
2017-12-28T00:22:55.412Z,67.67
2017-12-28T00:25:28.399Z,68.46
2017-12-28T00:28:02.061Z,68.31
2017-12-28T00:30:34.125Z,68.29
2017-12-28T00:33:05.439Z,67.95
2017-12-28T00:35:37.682Z,68.25
2017-12-28T00:40:57.551Z,68.33
2017-12-28T00:43:36.899Z,68.46
2017-12-28T00:48:52.424Z,68.24
2017-12-28T00:51:23.658Z,68.57
2017-12-28T00:53:56.066Z,68.79
2017-12-28T00:56:29.905Z,68.83
2017-12-28T00:59:01.813Z,68.75
2017-12-28T01:01:37.849Z,68.91
2017-12-28T01:04:09.825Z,68.66
2017-12-28T01:06:41.463Z,68.93
2017-12-28T01:09:12.840Z,69.14
2017-12-28T01:11:43.512Z,68.67
2017-12-28T01:14:14.176Z,68.50
2017-12-28T01:16:44.813Z,68.51
2017-12-28T01:19:15.165Z,68.49
2017-12-28T01:21:46.049Z,68.32
2017-12-28T01:24:21.706Z,68.33
2017-12-28T01:26:54.086Z,68.34
2017-12-28T01:29:28.066Z,68.27
2017-12-28T01:32:00.554Z,68.36
2017-12-28T01:34:32.446Z,68.86
2017-12-28T01:37:02.857Z,68.53
2017-12-28T01:39:36.094Z,68.93
2017-12-28T01:42:06.470Z,69.02
2017-12-28T01:44:36.756Z,68.84
2017-12-28T01:47:09.146Z,69.66
2017-12-28T01:49:39.563Z,70.31
2017-12-28T01:52:11.144Z,70.36
2017-12-28T01:54:41.875Z,70.86
2017-12-28T01:57:12.377Z,71.38
2017-12-28T01:59:43.616Z,71.54
2017-12-28T02:02:14.396Z,71.52
2017-12-28T02:04:45.245Z,71.27
2017-12-28T02:07:15.939Z,71.56
2017-12-28T02:09:46.274Z,71.34
2017-12-28T02:12:17.147Z,70.98
2017-12-28T02:14:47.440Z,70.62
2017-12-28T02:21:03.900Z,70.30
2017-12-28T02:23:34.332Z,69.83
2017-12-28T02:26:05.029Z,69.89
2017-12-28T02:28:35.407Z,69.55
2017-12-28T02:31:23.128Z,69.37
2017-12-28T02:33:53.476Z,69.49
2017-12-28T02:36:24.091Z,69.13
2017-12-28T02:38:56.144Z,69.04
2017-12-28T02:41:27.413Z,69.08
2017-12-28T02:43:58.031Z,68.90
2017-12-28T02:46:30.760Z,68.74
2017-12-28T02:49:01.839Z,68.85
2017-12-28T02:51:32.873Z,68.83
2017-12-28T02:54:03.513Z,68.52
2017-12-28T02:56:34.471Z,68.42
2017-12-28T02:59:05.490Z,68.47
2017-12-28T03:05:53.784Z,67.90
2017-12-28T03:08:24.223Z,68.06
2017-12-28T03:10:54.500Z,68.38
2017-12-28T03:13:26.029Z,68.31
2017-12-28T03:15:57.021Z,68.30
2017-12-28T03:18:27.363Z,68.44
2017-12-28T03:20:57.657Z,68.83
2017-12-28T03:23:28.603Z,68.90
2017-12-28T03:25:59.126Z,68.61
2017-12-28T03:28:30.567Z,68.47
2017-12-28T03:31:01.749Z,68.51
2017-12-28T03:33:33.231Z,68.89
2017-12-28T03:36:04.034Z,68.97
2017-12-28T03:38:34.952Z,68.96
2017-12-28T03:41:05.831Z,68.82
2017-12-28T03:43:37.404Z,69.24
2017-12-28T03:46:08.730Z,69.30
2017-12-28T03:48:47.033Z,69.34
2017-12-28T03:51:17.435Z,69.24
2017-12-28T03:53:47.882Z,69.14
2017-12-28T03:56:22.510Z,69.16
2017-12-28T03:58:53.202Z,68.87
2017-12-28T04:01:23.772Z,69.22
2017-12-28T04:03:54.061Z,69.28
2017-12-28T04:06:24.502Z,69.76
2017-12-28T04:08:55.323Z,69.72
2017-12-28T04:11:25.957Z,69.52
2017-12-28T04:13:59.482Z,69.36
2017-12-28T04:16:30.144Z,69.46
2017-12-28T04:19:01.496Z,69.65
2017-12-28T04:21:32.449Z,69.92
2017-12-28T04:24:06.815Z,70.61
2017-12-28T04:26:37.268Z,70.67
2017-12-28T04:29:09.189Z,71.24
2017-12-28T04:31:39.807Z,71.35
2017-12-28T04:34:11.082Z,70.94
2017-12-28T04:36:41.528Z,71.41
2017-12-28T04:39:12.278Z,71.39
2017-12-28T04:41:42.573Z,71.16
2017-12-28T04:44:13.027Z,71.07
2017-12-28T04:46:43.376Z,71.04
2017-12-28T04:49:13.850Z,70.63
2017-12-28T04:51:44.170Z,70.40
2017-12-28T04:54:14.560Z,70.27
2017-12-28T04:56:45.772Z,69.94
2017-12-28T04:59:16.053Z,69.85
2017-12-28T05:01:47.806Z,69.67
2017-12-28T05:04:18.255Z,70.71
2017-12-28T05:06:49.369Z,70.71
2017-12-28T05:09:19.958Z,70.31
2017-12-28T05:11:51.139Z,70.18
2017-12-28T05:14:21.527Z,70.93
2017-12-28T05:16:52.913Z,70.75
2017-12-28T05:19:25.708Z,70.91
2017-12-28T05:21:56.088Z,70.29
2017-12-28T05:24:26.909Z,70.88
2017-12-28T05:26:58.301Z,70.63
2017-12-28T05:29:30.074Z,70.79
2017-12-28T05:32:01.106Z,70.99
2017-12-28T05:34:33.127Z,71.35
2017-12-28T05:37:04.840Z,71.46
2017-12-28T05:39:37.001Z,71.34
2017-12-28T05:42:07.696Z,71.00
2017-12-28T05:44:38.358Z,70.89
2017-12-28T05:47:08.600Z,70.72
2017-12-28T05:49:39.197Z,71.33
2017-12-28T05:52:10.804Z,71.43
2017-12-28T05:54:41.915Z,71.29
2017-12-28T05:57:12.483Z,71.38
2017-12-28T05:59:47.777Z,71.00
2017-12-28T06:02:18.317Z,70.87
2017-12-28T06:04:51.256Z,70.84
2017-12-28T06:07:22.659Z,70.64
2017-12-28T06:09:53.019Z,70.37
2017-12-28T06:12:24.913Z,70.33
2017-12-28T06:14:55.106Z,70.49
2017-12-28T06:17:26.583Z,70.03
2017-12-28T06:19:57.118Z,69.64
2017-12-28T06:22:30.276Z,69.68
2017-12-28T06:25:01.147Z,70.06
2017-12-28T06:27:32.404Z,69.30
2017-12-28T06:30:04.924Z,69.32
2017-12-28T06:32:35.281Z,69.83
2017-12-28T06:35:05.799Z,69.54
2017-12-28T06:37:36.006Z,69.42
2017-12-28T06:40:09.454Z,69.21
2017-12-28T06:42:43.798Z,69.04
2017-12-28T06:45:17.628Z,68.60
2017-12-28T06:47:47.905Z,68.38
2017-12-28T06:50:18.347Z,68.16
2017-12-28T06:52:48.648Z,68.08
2017-12-28T06:55:19.411Z,68.06
2017-12-28T06:57:49.590Z,67.69
2017-12-28T07:00:19.967Z,67.73
2017-12-28T07:02:50.103Z,68.02
2017-12-28T07:05:20.725Z,68.29
2017-12-28T07:07:50.903Z,68.45
2017-12-28T07:10:21.167Z,68.78
2017-12-28T07:12:51.500Z,69.26
2017-12-28T07:15:21.971Z,69.26
2017-12-28T07:17:53.355Z,69.35
2017-12-28T07:20:23.985Z,69.57
2017-12-28T07:22:54.374Z,69.97
2017-12-28T07:28:05.515Z,70.65
2017-12-28T07:30:40.015Z,70.85
2017-12-28T07:33:10.423Z,71.37
2017-12-28T07:35:41.251Z,71.27
2017-12-28T07:38:11.598Z,71.60
2017-12-28T07:40:42.513Z,71.79
2017-12-28T07:43:13.030Z,71.20
2017-12-28T07:45:43.322Z,71.08
2017-12-28T07:48:18.799Z,70.94
2017-12-28T07:50:49.255Z,71.14
2017-12-28T07:53:28.878Z,71.39
2017-12-28T07:55:59.283Z,71.74
2017-12-28T07:58:40.820Z,71.34
2017-12-28T08:01:12.346Z,71.34
2017-12-28T08:03:42.904Z,71.28
2017-12-28T08:06:14.019Z,71.41
2017-12-28T08:08:45.010Z,71.57
2017-12-28T08:11:15.500Z,71.90
2017-12-28T08:13:47.849Z,71.96
2017-12-28T08:16:18.257Z,71.89
2017-12-28T08:18:50.423Z,70.87
2017-12-28T08:21:22.936Z,70.82
2017-12-28T08:23:56.045Z,70.20
2017-12-28T08:26:28.679Z,70.23
2017-12-28T08:28:59.313Z,70.29
2017-12-28T08:31:31.770Z,70.48
2017-12-28T08:34:02.304Z,70.09
2017-12-28T08:36:34.411Z,69.81
2017-12-28T08:39:07.427Z,69.36
2017-12-28T08:41:39.083Z,69.22
2017-12-28T08:44:09.597Z,69.25
2017-12-28T08:46:42.417Z,69.47
2017-12-28T08:49:12.815Z,69.93
2017-12-28T08:51:45.390Z,69.64
2017-12-28T08:54:16.287Z,69.34
2017-12-28T08:56:47.963Z,69.91
2017-12-28T08:59:18.461Z,69.96
2017-12-28T09:01:49.437Z,70.49
2017-12-28T09:04:20.653Z,70.02
2017-12-28T09:06:51.287Z,69.67
2017-12-28T09:09:23.143Z,70.35
2017-12-28T09:11:54.256Z,70.51
2017-12-28T09:14:27.568Z,70.18
2017-12-28T09:16:58.429Z,69.81
2017-12-28T09:19:29.237Z,70.06
2017-12-28T09:22:00.105Z,69.54
2017-12-28T09:24:32.782Z,69.08
2017-12-28T09:27:04.788Z,69.29
2017-12-28T09:29:35.428Z,68.81
2017-12-28T09:32:21.716Z,68.93
2017-12-28T09:34:52.678Z,69.30
2017-12-28T09:37:23.444Z,69.37
2017-12-28T09:39:54.520Z,69.44
2017-12-28T09:42:25.490Z,69.84
2017-12-28T09:44:56.736Z,69.70
2017-12-28T09:47:27.700Z,69.26
2017-12-28T09:49:59.025Z,68.70
2017-12-28T09:52:32.015Z,67.97
2017-12-28T09:55:02.806Z,67.72
2017-12-28T09:57:42.689Z,67.92
2017-12-28T10:03:15.126Z,68.38
2017-12-28T10:05:45.695Z,67.39
2017-12-28T10:08:16.100Z,65.81
2017-12-28T10:10:47.393Z,64.94
2017-12-28T10:13:17.780Z,62.97
2017-12-28T10:15:54.649Z,63.64
2017-12-28T10:18:27.265Z,61.28
2017-12-28T10:20:58.936Z,63.05
2017-12-28T10:23:29.378Z,63.72
2017-12-28T10:26:01.872Z,63.99
2017-12-28T10:28:32.677Z,64.51
2017-12-28T10:31:03.172Z,64.52
2017-12-28T10:33:33.656Z,63.90
2017-12-28T10:36:04.158Z,63.29
2017-12-28T10:38:34.479Z,62.96
2017-12-28T10:41:08.547Z,63.55
2017-12-28T10:43:40.323Z,63.30
2017-12-28T10:46:15.220Z,62.68
2017-12-28T10:48:46.826Z,62.35
2017-12-28T10:51:18.413Z,61.78
2017-12-28T10:53:49.449Z,60.84
2017-12-28T10:56:22.330Z,60.02
2017-12-28T10:58:55.709Z,60.70
2017-12-28T11:01:35.447Z,58.33
2017-12-28T11:04:08.483Z,57.01
2017-12-28T11:06:38.946Z,56.55
2017-12-28T11:09:09.540Z,56.25
2017-12-28T11:11:40.214Z,55.89
2017-12-28T11:14:11.983Z,57.54
2017-12-28T11:16:44.407Z,56.41
2017-12-28T11:19:15.215Z,56.71
2017-12-28T11:21:47.233Z,57.27
2017-12-28T11:24:17.740Z,55.46
2017-12-28T11:26:48.304Z,55.79
2017-12-28T11:29:20.374Z,55.71
2017-12-28T11:31:56.955Z,55.34
2017-12-28T11:34:31.722Z,56.28
2017-12-28T11:37:08.420Z,56.10
2017-12-28T11:39:43.517Z,55.45
2017-12-28T11:42:14.675Z,55.28
2017-12-28T11:44:45.391Z,54.78
2017-12-28T11:47:17.669Z,53.56
2017-12-28T11:49:54.249Z,53.37
2017-12-28T11:52:31.123Z,53.45
2017-12-28T11:55:05.651Z,53.96
2017-12-28T11:57:37.998Z,54.87
2017-12-28T12:00:15.562Z,55.60
2017-12-28T12:02:49.103Z,55.28
2017-12-28T12:05:24.205Z,54.59
2017-12-28T12:07:55.648Z,53.46
2017-12-28T12:10:28.599Z,53.13
2017-12-28T12:13:02.509Z,52.87
2017-12-28T12:15:33.864Z,53.13
2017-12-28T12:18:05.355Z,52.57
2017-12-28T12:20:36.934Z,53.11
2017-12-28T12:23:08.332Z,52.64
2017-12-28T12:25:39.020Z,51.69
2017-12-28T12:28:13.195Z,51.09
2017-12-28T12:30:46.564Z,52.60
2017-12-28T12:33:18.168Z,52.81
2017-12-28T12:35:51.402Z,52.18
2017-12-28T12:38:22.143Z,52.34
2017-12-28T12:40:53.986Z,51.97
2017-12-28T12:43:24.400Z,53.39
2017-12-28T12:45:55.968Z,53.84
2017-12-28T12:48:27.600Z,53.51
2017-12-28T12:50:58.000Z,53.32
2017-12-28T12:53:29.113Z,52.97
2017-12-28T12:55:59.670Z,52.51
2017-12-28T12:58:31.117Z,52.83
2017-12-28T13:01:01.892Z,52.11
2017-12-28T13:03:32.512Z,51.58
2017-12-28T13:06:03.960Z,51.12
2017-12-28T13:08:34.851Z,51.56
2017-12-28T13:11:05.338Z,51.87
2017-12-28T13:13:35.821Z,52.50
2017-12-28T13:16:06.289Z,52.83
2017-12-28T13:18:38.643Z,52.67
2017-12-28T13:21:09.546Z,52.92
2017-12-28T13:23:40.159Z,52.64
2017-12-28T13:26:10.616Z,52.98
2017-12-28T13:28:42.118Z,53.90
2017-12-28T13:31:12.899Z,53.37
2017-12-28T13:33:44.652Z,53.24
2017-12-28T13:36:16.062Z,54.05
2017-12-28T13:38:47.224Z,53.83
2017-12-28T13:41:18.596Z,53.75
2017-12-28T13:43:50.713Z,53.52
2017-12-28T13:46:21.716Z,53.51
2017-12-28T13:48:52.625Z,53.67
2017-12-28T13:51:25.457Z,54.53
2017-12-28T13:53:58.018Z,53.78
2017-12-28T13:56:37.932Z,53.84
2017-12-28T13:59:18.390Z,53.81
2017-12-28T14:01:50.187Z,54.11
2017-12-28T14:04:21.476Z,54.32
2017-12-28T14:06:52.119Z,54.17
2017-12-28T14:09:23.308Z,54.23
2017-12-28T14:11:55.713Z,54.21
2017-12-28T14:14:26.739Z,54.05
2017-12-28T14:16:57.580Z,54.31
2017-12-28T14:19:29.143Z,53.94
2017-12-28T14:21:59.695Z,54.01
2017-12-28T14:24:30.706Z,54.29
2017-12-28T14:27:01.540Z,54.68
2017-12-28T14:29:32.325Z,54.86
2017-12-28T14:32:05.008Z,55.03
2017-12-28T14:34:40.614Z,55.93
2017-12-28T14:37:12.341Z,55.78
2017-12-28T14:39:44.275Z,55.77
2017-12-28T14:42:15.395Z,55.19
2017-12-28T14:44:47.323Z,54.55
2017-12-28T14:47:17.808Z,55.54
2017-12-28T14:49:48.719Z,55.60
2017-12-28T14:52:19.168Z,55.73
2017-12-28T14:54:50.410Z,55.49
2017-12-28T14:57:26.890Z,56.08
2017-12-28T14:59:57.972Z,56.39
2017-12-28T15:02:29.179Z,56.74
2017-12-28T15:04:59.518Z,56.76
2017-12-28T15:07:29.894Z,57.19
2017-12-28T15:10:00.628Z,57.35
2017-12-28T15:12:31.444Z,57.51
2017-12-28T15:15:05.685Z,57.57
2017-12-28T15:17:40.321Z,57.67
2017-12-28T15:20:10.791Z,58.12
2017-12-28T15:22:42.987Z,58.05
2017-12-28T15:25:13.397Z,57.68
2017-12-28T15:27:47.393Z,58.31
2017-12-28T15:30:19.599Z,58.68
2017-12-28T15:32:50.856Z,58.41
2017-12-28T15:35:21.864Z,58.66
2017-12-28T15:37:52.283Z,59.01
2017-12-28T15:40:23.051Z,58.96
2017-12-28T15:42:57.831Z,58.84
2017-12-28T15:45:28.359Z,59.15
2017-12-28T15:47:58.917Z,59.15
2017-12-28T15:50:29.666Z,58.89
2017-12-28T15:53:00.118Z,59.07
2017-12-28T15:55:31.186Z,59.16
2017-12-28T15:58:01.985Z,59.08
2017-12-28T16:00:33.534Z,59.66
2017-12-28T16:03:04.098Z,59.08
2017-12-28T16:05:37.205Z,59.11
2017-12-28T16:08:08.736Z,59.63
2017-12-28T16:10:39.104Z,59.39
2017-12-28T16:13:10.625Z,59.15
2017-12-28T16:15:42.374Z,59.05
2017-12-28T16:18:13.566Z,59.04
2017-12-28T16:20:45.214Z,59.89
2017-12-28T16:23:16.921Z,60.07
2017-12-28T16:25:47.445Z,60.02
2017-12-28T16:28:18.400Z,60.29
2017-12-28T16:30:49.801Z,60.56
2017-12-28T16:33:20.773Z,60.22
2017-12-28T16:35:51.275Z,60.15
2017-12-28T16:38:22.247Z,60.71
2017-12-28T16:40:52.695Z,60.63
2017-12-28T16:43:23.604Z,60.27
2017-12-28T16:45:54.805Z,60.50
2017-12-28T16:48:29.636Z,60.52
2017-12-28T16:51:00.441Z,60.99
2017-12-28T16:53:31.888Z,60.93
2017-12-28T16:56:02.543Z,60.74
2017-12-28T16:58:33.125Z,60.85
2017-12-28T17:01:05.099Z,60.37
2017-12-28T17:03:35.906Z,60.14
2017-12-28T17:06:06.604Z,60.79
2017-12-28T17:08:37.038Z,60.79
2017-12-28T17:11:09.260Z,60.98
2017-12-28T17:13:39.815Z,60.92
2017-12-28T17:16:10.316Z,60.90
2017-12-28T17:18:40.600Z,61.22
2017-12-28T17:21:13.991Z,60.91
2017-12-28T17:23:45.722Z,60.87
2017-12-28T17:26:16.613Z,61.20
2017-12-28T17:28:51.127Z,60.87
2017-12-28T17:31:22.325Z,60.92
2017-12-28T17:33:53.879Z,61.15
2017-12-28T17:36:26.235Z,61.44
2017-12-28T17:39:03.794Z,61.06
2017-12-28T17:41:42.380Z,60.53
2017-12-28T17:44:14.418Z,60.57
2017-12-28T17:46:45.441Z,60.86
2017-12-28T17:49:15.809Z,61.07
2017-12-28T17:51:46.587Z,61.37
2017-12-28T17:54:17.048Z,61.87
2017-12-28T17:56:47.727Z,61.97
2017-12-28T17:59:20.755Z,61.89
2017-12-28T18:01:51.654Z,61.71
2017-12-28T18:04:22.252Z,61.43
2017-12-28T18:06:53.514Z,61.41
2017-12-28T18:09:24.373Z,61.82
2017-12-28T18:11:55.907Z,62.04
2017-12-28T18:14:27.881Z,62.00
2017-12-28T18:16:58.963Z,62.45
2017-12-28T18:19:31.723Z,62.45
2017-12-28T18:22:02.317Z,62.59
2017-12-28T18:24:33.977Z,62.74
2017-12-28T18:27:04.964Z,62.46
2017-12-28T18:29:43.797Z,62.51
2017-12-28T18:32:14.951Z,62.82
2017-12-28T18:34:45.550Z,62.58
2017-12-28T18:37:15.969Z,62.81
2017-12-28T18:39:47.192Z,62.95
2017-12-28T18:42:17.773Z,63.06
2017-12-28T18:44:48.460Z,62.64
2017-12-28T18:47:19.076Z,62.29
2017-12-28T18:49:52.294Z,61.79
2017-12-28T18:52:24.370Z,61.80
2017-12-28T18:54:55.752Z,61.57
2017-12-28T18:57:28.749Z,61.99
2017-12-28T18:59:59.893Z,62.09
2017-12-28T19:02:30.604Z,61.35
2017-12-28T19:05:01.842Z,61.36
2017-12-28T19:07:33.277Z,61.73
2017-12-28T19:10:05.644Z,61.83
2017-12-28T19:12:40.469Z,61.95
2017-12-28T19:15:13.918Z,62.25
2017-12-28T19:17:52.335Z,61.92
2017-12-28T19:20:23.282Z,61.69
2017-12-28T19:22:56.263Z,61.59
2017-12-28T19:25:31.049Z,61.75
2017-12-28T19:28:03.002Z,61.66
2017-12-28T19:30:35.479Z,61.71
2017-12-28T19:33:07.082Z,61.49
2017-12-28T19:35:40.114Z,61.15
2017-12-28T19:38:14.474Z,61.15
2017-12-28T19:40:48.343Z,61.25
2017-12-28T19:43:22.789Z,61.33
2017-12-28T19:45:55.702Z,61.32
2017-12-28T19:48:28.092Z,61.41
2017-12-28T19:51:00.123Z,61.27
2017-12-28T19:53:39.906Z,61.36
2017-12-28T19:56:26.797Z,61.37
2017-12-28T19:58:59.584Z,61.19
2017-12-28T20:01:32.020Z,61.51
2017-12-28T20:04:04.358Z,61.46
2017-12-28T20:06:37.382Z,61.05
2017-12-28T20:09:10.639Z,61.00
2017-12-28T20:11:45.378Z,61.17
2017-12-28T20:14:16.353Z,60.98
2017-12-28T20:16:48.113Z,61.06
2017-12-28T20:19:20.940Z,61.19
2017-12-28T20:21:53.596Z,60.89
2017-12-28T20:24:27.672Z,60.83
2017-12-28T20:27:00.872Z,61.07
2017-12-28T20:29:36.281Z,61.02
2017-12-28T20:32:08.477Z,61.21
2017-12-28T20:34:51.929Z,61.31
2017-12-28T20:37:24.606Z,62.19
2017-12-28T20:40:06.574Z,62.24
2017-12-28T20:42:43.830Z,61.72
2017-12-28T20:45:22.017Z,61.12
2017-12-28T20:47:56.251Z,61.61
2017-12-28T20:50:31.524Z,61.40
2017-12-28T20:53:11.507Z,61.22
2017-12-28T20:55:50.959Z,60.79
2017-12-28T20:58:47.368Z,61.15
2017-12-28T21:01:19.511Z,61.31
2017-12-28T21:03:53.210Z,61.22
2017-12-28T21:06:26.716Z,61.05
2017-12-28T21:08:58.722Z,60.70
2017-12-28T21:11:30.677Z,60.48
2017-12-28T21:14:06.855Z,60.94
2017-12-28T21:16:38.899Z,61.05
2017-12-28T21:19:12.312Z,61.89
2017-12-28T21:21:54.538Z,61.83
2017-12-28T21:24:31.310Z,61.64
2017-12-28T21:27:03.241Z,61.71
2017-12-28T21:29:34.464Z,61.70
2017-12-28T21:32:09.258Z,61.80
2017-12-28T21:34:41.173Z,61.66
2017-12-28T21:37:15.128Z,61.74
2017-12-28T21:39:48.966Z,61.77
2017-12-28T21:42:20.437Z,61.94
2017-12-28T21:44:54.899Z,62.53
2017-12-28T21:47:28.324Z,62.46
2017-12-28T21:50:01.955Z,62.27
2017-12-28T21:52:35.309Z,62.27
2017-12-28T21:55:08.051Z,62.44
2017-12-28T21:57:40.217Z,62.70
2017-12-28T22:00:11.493Z,62.55
2017-12-28T22:02:48.732Z,62.48
2017-12-28T22:05:19.994Z,62.26
2017-12-28T22:07:52.417Z,62.46
2017-12-28T22:10:24.470Z,62.28
2017-12-28T22:12:54.996Z,62.40
2017-12-28T22:15:26.099Z,63.23
2017-12-28T22:17:57.307Z,63.26
2017-12-28T22:20:29.296Z,62.65
2017-12-28T22:22:59.791Z,62.75
2017-12-28T22:25:31.566Z,63.04
2017-12-28T22:28:02.213Z,63.26
2017-12-28T22:30:32.765Z,63.59
2017-12-28T22:33:03.208Z,63.49
2017-12-28T22:35:33.753Z,63.36
2017-12-28T22:38:06.664Z,63.34
2017-12-28T22:40:50.417Z,63.35
2017-12-28T22:45:57.384Z,63.61
2017-12-28T22:48:29.480Z,64.09
2017-12-28T22:51:00.615Z,64.92
2017-12-28T22:53:32.092Z,65.88
2017-12-28T22:56:04.734Z,65.83
2017-12-28T22:58:36.513Z,66.18
2017-12-28T23:01:07.767Z,66.17
2017-12-28T23:03:38.290Z,66.20
2017-12-28T23:06:09.007Z,66.46
2017-12-28T23:08:39.388Z,66.45
2017-12-28T23:11:09.652Z,66.00
2017-12-28T23:13:40.491Z,65.76
2017-12-28T23:16:11.318Z,66.03
2017-12-28T23:18:42.091Z,66.01
2017-12-28T23:21:12.882Z,65.62
2017-12-28T23:23:43.713Z,65.50
2017-12-28T23:26:14.157Z,65.41
2017-12-28T23:28:44.893Z,65.23
2017-12-28T23:31:15.890Z,65.13
2017-12-28T23:33:47.007Z,65.37
2017-12-28T23:36:18.671Z,65.17
2017-12-28T23:38:49.026Z,65.19
2017-12-28T23:41:20.346Z,65.13
2017-12-28T23:43:51.503Z,65.01
2017-12-28T23:46:22.221Z,65.06
2017-12-28T23:48:52.844Z,65.10
2017-12-28T23:51:23.543Z,65.26
2017-12-28T23:53:54.258Z,65.01
2017-12-28T23:56:24.836Z,65.00
2017-12-28T23:58:55.530Z,64.75
